createdAt,value
2023-12-14T00:00:23.325Z,99933.67
2023-12-14T00:03:11.705Z,99937.17
2023-12-14T00:05:19.917Z,99933.77
2023-12-14T00:07:27.885Z,99934.16
2023-12-14T00:09:35.886Z,99938.45
2023-12-14T00:11:43.859Z,99938.89
2023-12-14T00:13:51.849Z,99941.37
2023-12-14T00:15:59.832Z,99942.66
2023-12-14T00:18:08.034Z,99943.80
2023-12-14T00:20:16.706Z,99942.55
2023-12-14T00:22:25.596Z,99946.63
2023-12-14T00:24:33.792Z,99946.73
2023-12-14T00:26:41.734Z,99947.37
2023-12-14T00:28:49.757Z,99949.87
2023-12-14T00:30:57.780Z,99953.75
2023-12-14T00:33:05.990Z,99958.72
2023-12-14T00:35:14.460Z,99959.27
2023-12-14T00:37:22.819Z,99964.01
2023-12-14T00:39:30.761Z,99961.84
2023-12-14T00:41:38.904Z,99964.66
2023-12-14T00:43:46.870Z,99963.40
2023-12-14T00:45:54.862Z,99960.94
2023-12-14T00:48:02.857Z,99966.41
2023-12-14T00:50:12.493Z,99966.32
2023-12-14T00:52:20.752Z,99967.45
2023-12-14T00:54:28.679Z,99964.86
2023-12-14T00:56:36.697Z,99969.58
2023-12-14T00:58:44.754Z,99968.44
2023-12-14T01:00:55.564Z,99970.23
2023-12-14T01:03:04.486Z,99970.95
2023-12-14T01:05:12.892Z,99979.37
2023-12-14T01:07:20.882Z,99984.25
2023-12-14T01:09:28.847Z,99989.73
2023-12-14T01:11:37.130Z,99993.29
2023-12-14T01:13:45.155Z,99997.17
2023-12-14T01:15:53.669Z,99998.08
2023-12-14T01:18:01.744Z,99999.84
2023-12-14T01:20:11.588Z,100000.76
2023-12-14T01:22:19.700Z,100002.61
2023-12-14T01:24:27.967Z,100005.19
2023-12-14T01:26:36.020Z,100005.66
2023-12-14T01:28:43.953Z,100007.29
2023-12-14T01:30:51.979Z,100008.55
2023-12-14T01:33:00.272Z,100010.34
2023-12-14T01:35:09.536Z,100009.97
2023-12-14T01:37:17.494Z,100017.27
2023-12-14T01:39:25.804Z,100015.80
2023-12-14T01:41:33.699Z,100019.97
2023-12-14T01:43:41.642Z,100020.66
2023-12-14T01:45:49.718Z,100019.48
2023-12-14T01:47:57.743Z,100017.09
2023-12-14T01:50:06.866Z,100019.45
2023-12-14T01:52:14.950Z,100022.52
2023-12-14T01:54:22.946Z,100022.46
2023-12-14T01:56:30.916Z,100021.41
2023-12-14T01:58:38.940Z,100022.34
2023-12-14T02:00:53.068Z,100022.42
2023-12-14T02:03:01.008Z,100021.50
2023-12-14T02:05:09.961Z,100019.77
2023-12-14T02:07:18.056Z,100022.83
2023-12-14T02:09:26.264Z,100023.52
2023-12-14T02:11:34.411Z,100029.63
2023-12-14T02:13:42.911Z,100027.77
2023-12-14T02:15:50.989Z,100027.45
2023-12-14T02:17:59.413Z,100023.55
2023-12-14T02:20:09.499Z,100025.55
2023-12-14T02:22:18.522Z,100028.41
2023-12-14T02:24:26.465Z,100028.91
2023-12-14T02:26:34.528Z,100033.19
2023-12-14T02:28:42.555Z,100035.34
2023-12-14T02:30:50.630Z,100035.27
2023-12-14T02:32:58.651Z,100038.19
2023-12-14T02:35:08.024Z,100039.91
2023-12-14T02:37:15.999Z,100038.79
2023-12-14T02:39:23.947Z,100042.35
2023-12-14T02:41:31.902Z,100045.00
2023-12-14T02:43:42.097Z,100043.70
2023-12-14T02:45:50.059Z,100045.85
2023-12-14T02:47:58.049Z,100042.53
2023-12-14T02:50:07.428Z,100047.16
2023-12-14T02:52:15.390Z,100046.61
2023-12-14T02:54:23.367Z,100049.48
2023-12-14T02:56:31.293Z,100050.30
2023-12-14T02:58:39.537Z,100048.10
2023-12-14T03:00:47.624Z,100053.89
2023-12-14T03:02:55.746Z,100056.39
2023-12-14T03:05:03.819Z,100059.70
2023-12-14T03:07:11.914Z,100063.15
2023-12-14T03:09:20.520Z,100063.60
2023-12-14T03:11:28.745Z,100068.55
2023-12-14T03:13:36.703Z,100073.77
2023-12-14T03:15:46.374Z,100078.61
2023-12-14T03:17:54.557Z,100081.10
2023-12-14T03:20:02.717Z,100082.42
2023-12-14T03:22:11.420Z,100086.39
2023-12-14T03:24:19.559Z,100083.63
2023-12-14T03:26:27.868Z,100082.86
2023-12-14T03:28:36.250Z,100085.79
2023-12-14T03:30:44.427Z,100091.14
2023-12-14T03:32:52.828Z,100095.09
2023-12-14T03:35:00.980Z,100098.73
2023-12-14T03:37:09.199Z,100102.64
2023-12-14T03:39:18.026Z,100107.21
2023-12-14T03:41:26.149Z,100112.92
2023-12-14T03:43:34.182Z,100114.20
2023-12-14T03:45:42.393Z,100118.30
2023-12-14T03:47:50.848Z,100123.55
2023-12-14T03:49:59.008Z,100125.86
2023-12-14T03:52:08.036Z,100133.44
2023-12-14T03:54:16.110Z,100134.45
2023-12-14T03:56:24.087Z,100138.29
2023-12-14T03:58:32.163Z,100136.84
2023-12-14T04:00:40.166Z,100138.80
2023-12-14T04:02:48.532Z,100140.19
2023-12-14T04:04:56.884Z,100140.05
2023-12-14T04:07:05.584Z,100140.13
2023-12-14T04:09:13.906Z,100143.81
2023-12-14T04:11:21.894Z,100148.23
2023-12-14T04:13:30.627Z,100150.15
2023-12-14T04:15:38.856Z,100150.58
2023-12-14T04:17:46.943Z,100148.90
2023-12-14T04:19:55.333Z,100148.95
2023-12-14T04:22:03.650Z,100151.02
2023-12-14T04:24:13.925Z,100151.85
2023-12-14T04:26:22.022Z,100149.88
2023-12-14T04:28:30.040Z,100151.30
2023-12-14T04:30:38.208Z,100154.81
2023-12-14T04:32:47.861Z,100158.23
2023-12-14T04:34:56.725Z,100157.09
2023-12-14T04:37:05.089Z,100159.64
2023-12-14T04:39:13.215Z,100157.41
2023-12-14T04:41:21.372Z,100159.96
2023-12-14T04:43:30.985Z,100164.87
2023-12-14T04:45:39.110Z,100159.12
2023-12-14T04:47:47.205Z,100162.77
2023-12-14T04:49:55.590Z,100164.42
2023-12-14T04:52:03.779Z,100164.86
2023-12-14T04:54:11.915Z,100169.45
2023-12-14T04:56:20.101Z,100169.51
2023-12-14T04:58:28.349Z,100171.26
2023-12-14T05:00:36.488Z,100176.77
2023-12-14T05:02:49.044Z,100181.52
2023-12-14T05:05:00.236Z,100185.17
2023-12-14T05:07:08.503Z,100186.20
2023-12-14T05:09:16.535Z,100185.70
2023-12-14T05:11:24.672Z,100189.77
2023-12-14T05:13:33.663Z,100194.34
2023-12-14T05:15:42.833Z,100199.77
2023-12-14T05:17:51.076Z,100202.99
2023-12-14T05:20:00.035Z,100203.61
2023-12-14T05:22:08.254Z,100209.75
2023-12-14T05:24:16.351Z,100211.11
2023-12-14T05:26:24.533Z,100214.50
2023-12-14T05:28:32.605Z,100216.64
2023-12-14T05:30:40.810Z,100220.93
2023-12-14T05:32:49.261Z,100226.22
2023-12-14T05:34:57.392Z,100227.65
2023-12-14T05:37:06.236Z,100230.01
2023-12-14T05:39:15.343Z,100237.49
2023-12-14T05:41:23.462Z,100243.44
2023-12-14T05:43:31.493Z,100250.23
2023-12-14T05:45:39.505Z,100248.58
2023-12-14T05:47:47.656Z,100254.84
2023-12-14T05:49:55.767Z,100256.51
2023-12-14T05:52:04.290Z,100262.23
2023-12-14T05:54:12.210Z,100267.15
2023-12-14T05:56:21.209Z,100272.25
2023-12-14T05:58:29.557Z,100274.43
2023-12-14T06:00:38.334Z,100278.30
2023-12-14T06:02:46.329Z,100279.52
2023-12-14T06:04:54.445Z,100285.36
2023-12-14T06:07:02.439Z,100288.08
2023-12-14T06:09:10.445Z,100289.23
2023-12-14T06:11:18.683Z,100292.60
2023-12-14T06:13:26.823Z,100294.38
2023-12-14T06:15:35.149Z,100300.43
2023-12-14T06:17:43.997Z,100301.84
2023-12-14T06:19:52.428Z,100307.48
2023-12-14T06:22:00.534Z,100314.27
2023-12-14T06:24:09.178Z,100317.66
2023-12-14T06:26:17.339Z,100321.62
2023-12-14T06:28:25.416Z,100327.86
2023-12-14T06:30:33.578Z,100333.66
2023-12-14T06:32:41.858Z,100334.83
2023-12-14T06:34:50.319Z,100342.52
2023-12-14T06:37:01.164Z,100341.63
2023-12-14T06:39:09.928Z,100345.25
2023-12-14T06:41:24.369Z,100350.27
2023-12-14T06:43:32.419Z,100354.41
2023-12-14T06:45:41.914Z,100350.90
2023-12-14T06:47:51.393Z,100353.66
2023-12-14T06:49:59.621Z,100359.03
2023-12-14T06:52:08.894Z,100361.81
2023-12-14T06:54:17.088Z,100372.95
2023-12-14T06:56:25.109Z,100375.95
2023-12-14T06:58:33.192Z,100378.14
2023-12-14T07:00:41.725Z,100383.27
2023-12-14T07:02:49.758Z,100381.70
2023-12-14T07:04:58.060Z,100384.39
2023-12-14T07:07:06.544Z,100387.91
2023-12-14T07:09:14.993Z,100388.98
2023-12-14T07:11:23.197Z,100391.16
2023-12-14T07:13:31.822Z,100394.52
2023-12-14T07:15:39.944Z,100396.80
2023-12-14T07:17:48.122Z,100399.10
2023-12-14T07:19:59.765Z,100398.73
2023-12-14T07:22:09.022Z,100401.54
2023-12-14T07:24:17.138Z,100404.16
2023-12-14T07:26:25.289Z,100407.75
2023-12-14T07:28:33.982Z,100405.73
2023-12-14T07:30:42.193Z,100407.05
2023-12-14T07:32:50.274Z,100411.91
2023-12-14T07:35:00.838Z,100418.42
2023-12-14T07:37:09.037Z,100419.38
2023-12-14T07:39:17.153Z,100421.95
2023-12-14T07:41:28.883Z,100427.38
2023-12-14T07:43:36.896Z,100429.01
2023-12-14T07:45:45.025Z,100431.32
2023-12-14T07:47:53.118Z,100436.80
2023-12-14T07:50:01.372Z,100438.60
2023-12-14T07:52:10.606Z,100437.88
2023-12-14T07:54:18.924Z,100437.31
2023-12-14T07:56:28.887Z,100441.81
2023-12-14T07:58:37.128Z,100445.30
2023-12-14T08:00:45.365Z,100452.98
2023-12-14T08:02:53.455Z,100456.67
2023-12-14T08:05:01.973Z,100461.66
2023-12-14T08:07:10.144Z,100462.73
2023-12-14T08:09:18.093Z,100466.90
2023-12-14T08:11:26.255Z,100471.13
2023-12-14T08:13:34.453Z,100478.76
2023-12-14T08:15:42.940Z,100484.85
2023-12-14T08:17:51.144Z,100491.30
2023-12-14T08:19:59.470Z,100497.42
2023-12-14T08:22:08.800Z,100497.20
2023-12-14T08:24:16.758Z,100498.05
2023-12-14T08:26:24.803Z,100502.48
2023-12-14T08:28:32.917Z,100502.24
2023-12-14T08:30:41.472Z,100502.30
2023-12-14T08:32:49.696Z,100508.08
2023-12-14T08:34:57.852Z,100509.24
2023-12-14T08:37:06.333Z,100517.86
2023-12-14T08:39:14.301Z,100520.73
2023-12-14T08:41:22.350Z,100529.60
2023-12-14T08:43:30.319Z,100537.76
2023-12-14T08:45:38.637Z,100541.52
2023-12-14T08:47:46.654Z,100546.08
2023-12-14T08:49:54.725Z,100548.45
2023-12-14T08:52:05.476Z,100550.30
2023-12-14T08:54:13.581Z,100550.73
2023-12-14T08:56:21.642Z,100553.66
2023-12-14T08:58:30.736Z,100554.55
2023-12-14T09:00:40.926Z,100551.73
2023-12-14T09:02:49.764Z,100555.52
2023-12-14T09:04:57.920Z,100557.85
2023-12-14T09:07:06.399Z,100562.58
2023-12-14T09:09:14.905Z,100572.50
2023-12-14T09:11:22.847Z,100573.65
2023-12-14T09:13:30.812Z,100574.89
2023-12-14T09:15:38.972Z,100576.76
2023-12-14T09:17:47.223Z,100584.88
2023-12-14T09:19:55.406Z,100581.39
2023-12-14T09:22:03.427Z,100585.17
2023-12-14T09:24:13.656Z,100590.34
2023-12-14T09:26:22.150Z,100591.61
2023-12-14T09:28:30.204Z,100591.96
2023-12-14T09:30:38.297Z,100596.66
2023-12-14T09:32:46.768Z,100597.80
2023-12-14T09:34:57.885Z,100600.14
2023-12-14T09:37:06.266Z,100599.94
2023-12-14T09:39:16.634Z,100592.44
2023-12-14T09:41:24.694Z,100593.33
2023-12-14T09:43:32.918Z,100599.59
2023-12-14T09:45:46.199Z,100599.77
2023-12-14T09:47:55.821Z,100604.29
2023-12-14T09:50:05.724Z,100609.92
2023-12-14T09:52:13.792Z,100616.08
2023-12-14T09:54:21.730Z,100616.02
2023-12-14T09:56:29.907Z,100617.38
2023-12-14T09:58:38.138Z,100621.51
2023-12-14T10:00:46.280Z,100622.50
2023-12-14T10:02:54.230Z,100630.79
2023-12-14T10:05:02.332Z,100633.13
2023-12-14T10:07:11.061Z,100629.06
2023-12-14T10:09:26.430Z,100627.23
2023-12-14T10:11:34.401Z,100628.83
2023-12-14T10:13:43.492Z,100629.66
2023-12-14T10:15:51.899Z,100630.92
2023-12-14T10:18:00.054Z,100636.49
2023-12-14T10:20:10.635Z,100639.02
2023-12-14T10:22:20.005Z,100644.92
2023-12-14T10:24:28.211Z,100647.24
2023-12-14T10:26:37.105Z,100646.98
2023-12-14T10:28:45.088Z,100645.84
2023-12-14T10:30:53.096Z,100651.27
2023-12-14T10:33:01.219Z,100652.41
2023-12-14T10:35:10.329Z,100652.97
2023-12-14T10:37:19.773Z,100650.73
2023-12-14T10:39:28.577Z,100646.71
2023-12-14T10:41:38.427Z,100646.84
2023-12-14T10:43:51.705Z,100646.84
2023-12-14T10:46:06.710Z,100647.47
2023-12-14T10:48:15.430Z,100646.40
2023-12-14T10:50:24.809Z,100650.02
2023-12-14T10:52:36.981Z,100651.88
2023-12-14T10:54:47.013Z,100650.20
2023-12-14T10:56:58.486Z,100650.11
2023-12-14T10:59:10.923Z,100654.12
2023-12-14T11:01:21.260Z,100656.49
2023-12-14T11:03:34.945Z,100660.13
2023-12-14T11:05:43.489Z,100667.39
2023-12-14T11:07:54.773Z,100665.05
2023-12-14T11:10:05.282Z,100668.95
2023-12-14T11:12:15.781Z,100670.08
2023-12-14T11:14:25.315Z,100674.98
2023-12-14T11:16:33.453Z,100678.05
2023-12-14T11:18:42.116Z,100680.05
2023-12-14T11:20:54.636Z,100688.21
2023-12-14T11:23:10.932Z,100689.88
2023-12-14T11:25:21.253Z,100695.66
2023-12-14T11:27:33.228Z,100694.06
2023-12-14T11:29:43.160Z,100694.89
2023-12-14T11:31:52.488Z,100698.36
2023-12-14T11:34:01.923Z,100700.77
2023-12-14T11:36:11.195Z,100701.20
2023-12-14T11:38:19.619Z,100705.00
2023-12-14T11:40:27.771Z,100712.16
2023-12-14T11:42:35.682Z,100712.33
2023-12-14T11:44:44.997Z,100712.82
2023-12-14T11:46:52.937Z,100716.36
2023-12-14T11:49:05.005Z,100712.84
2023-12-14T11:51:13.804Z,100711.57
2023-12-14T11:53:22.036Z,100711.84
2023-12-14T11:55:30.050Z,100710.33
2023-12-14T11:57:38.485Z,100715.54
2023-12-14T11:59:49.241Z,100717.48
2023-12-14T12:02:02.556Z,100723.83
2023-12-14T12:04:13.750Z,100726.30
2023-12-14T12:06:26.152Z,100725.79
2023-12-14T12:08:42.734Z,100730.86
2023-12-14T12:10:52.476Z,100727.92
2023-12-14T12:13:09.187Z,100729.29
2023-12-14T12:15:17.296Z,100726.89
2023-12-14T12:17:25.362Z,100728.52
2023-12-14T12:19:33.747Z,100726.83
2023-12-14T12:21:41.669Z,100732.10
2023-12-14T12:23:49.988Z,100734.58
2023-12-14T12:25:58.004Z,100741.52
2023-12-14T12:28:06.949Z,100740.88
2023-12-14T12:30:16.903Z,100746.79
2023-12-14T12:32:25.136Z,100748.59
2023-12-14T12:34:33.191Z,100753.28
2023-12-14T12:36:41.278Z,100756.98
2023-12-14T12:38:49.273Z,100764.14
2023-12-14T12:40:57.330Z,100770.86
2023-12-14T12:43:05.349Z,100775.80
2023-12-14T12:45:13.850Z,100781.05
2023-12-14T12:47:21.885Z,100781.75
2023-12-14T12:49:29.985Z,100786.16
2023-12-14T12:51:38.026Z,100789.05
2023-12-14T12:53:47.760Z,100790.25
2023-12-14T12:55:56.006Z,100795.60
2023-12-14T12:58:08.095Z,100794.60
2023-12-14T13:00:17.943Z,100794.15
2023-12-14T13:02:25.886Z,100791.01
2023-12-14T13:04:34.097Z,100789.37
2023-12-14T13:06:42.020Z,100789.73
2023-12-14T13:08:50.069Z,100793.02
2023-12-14T13:10:58.177Z,100801.35
2023-12-14T13:13:08.004Z,100799.73
2023-12-14T13:15:16.180Z,100799.31
2023-12-14T13:17:24.916Z,100803.11
2023-12-14T13:19:33.263Z,100800.16
2023-12-14T13:21:41.511Z,100799.84
2023-12-14T13:23:51.527Z,100802.23
2023-12-14T13:25:59.611Z,100810.09
2023-12-14T13:28:08.479Z,100813.89
2023-12-14T13:30:19.372Z,100817.91
2023-12-14T13:32:30.424Z,100828.92
2023-12-14T13:34:39.850Z,100835.64
2023-12-14T13:36:48.286Z,100844.31
2023-12-14T13:38:57.620Z,100845.23
2023-12-14T13:41:06.879Z,100848.36
2023-12-14T13:43:15.700Z,100848.77
2023-12-14T13:45:23.714Z,100847.36
2023-12-14T13:47:33.064Z,100851.09
2023-12-14T13:49:41.438Z,100858.09
2023-12-14T13:51:49.844Z,100864.00
2023-12-14T13:53:57.954Z,100863.56
2023-12-14T13:56:06.779Z,100867.55
2023-12-14T13:58:15.042Z,100867.80
2023-12-14T14:00:23.974Z,100875.85
2023-12-14T14:02:31.994Z,100879.27
2023-12-14T14:04:40.171Z,100881.77
2023-12-14T14:06:48.545Z,100885.54
2023-12-14T14:08:57.109Z,100892.63
2023-12-14T14:11:08.570Z,100896.16
2023-12-14T14:13:18.324Z,100908.54
2023-12-14T14:15:26.961Z,100912.89
2023-12-14T14:17:35.295Z,100915.20
2023-12-14T14:19:43.544Z,100916.94
2023-12-14T14:21:51.730Z,100917.45
2023-12-14T14:23:59.872Z,100926.19
2023-12-14T14:26:08.362Z,100931.35
2023-12-14T14:28:16.510Z,100934.27
2023-12-14T14:30:24.865Z,100936.59
2023-12-14T14:32:34.633Z,100943.11
2023-12-14T14:34:42.851Z,100945.61
2023-12-14T14:36:50.966Z,100950.19
2023-12-14T14:38:58.988Z,100958.84
2023-12-14T14:41:07.865Z,100963.64
2023-12-14T14:43:16.160Z,100966.13
2023-12-14T14:45:24.250Z,100968.31
2023-12-14T14:47:32.405Z,100968.32
2023-12-14T14:49:40.511Z,100973.59
2023-12-14T14:51:48.713Z,100979.17
2023-12-14T14:53:56.662Z,100978.70
2023-12-14T14:56:05.225Z,100980.91
2023-12-14T14:58:13.383Z,100988.92
2023-12-14T15:00:23.065Z,100995.29
2023-12-14T15:02:31.517Z,100997.91
2023-12-14T15:04:39.708Z,101002.14
2023-12-14T15:06:47.810Z,101007.48
2023-12-14T15:08:55.931Z,101009.26
2023-12-14T15:11:04.435Z,101013.19
2023-12-14T15:13:12.888Z,101015.29
2023-12-14T15:15:21.038Z,101018.83
2023-12-14T15:17:29.229Z,101020.86
2023-12-14T15:19:37.460Z,101023.84
2023-12-14T15:21:45.590Z,101028.79
2023-12-14T15:23:53.716Z,101033.02
2023-12-14T15:26:02.816Z,101033.23
2023-12-14T15:28:11.588Z,101037.48
2023-12-14T15:30:20.578Z,101034.66
2023-12-14T15:32:28.912Z,101037.50
2023-12-14T15:34:37.379Z,101040.73
2023-12-14T15:36:45.770Z,101048.39
2023-12-14T15:38:53.931Z,101054.52
2023-12-14T15:41:02.302Z,101060.93
2023-12-14T15:43:10.479Z,101066.96
2023-12-14T15:45:19.011Z,101073.61
2023-12-14T15:47:27.430Z,101074.13
2023-12-14T15:49:35.669Z,101082.36
2023-12-14T15:51:45.420Z,101086.04
2023-12-14T15:53:54.774Z,101091.55
2023-12-14T15:56:03.217Z,101096.30
2023-12-14T15:58:12.802Z,101100.92
2023-12-14T16:00:22.398Z,101101.95
2023-12-14T16:02:30.606Z,101102.23
2023-12-14T16:04:38.755Z,101107.66
2023-12-14T16:06:46.979Z,101105.84
2023-12-14T16:08:55.111Z,101110.21
2023-12-14T16:11:04.096Z,101107.90
2023-12-14T16:13:12.547Z,101106.55
2023-12-14T16:15:21.104Z,101109.42
2023-12-14T16:17:30.271Z,101108.16
2023-12-14T16:19:38.464Z,101109.85
2023-12-14T16:21:46.705Z,101112.25
2023-12-14T16:23:54.816Z,101117.07
2023-12-14T16:26:03.015Z,101119.66
2023-12-14T16:28:11.264Z,101122.66
2023-12-14T16:30:19.853Z,101123.33
2023-12-14T16:32:28.529Z,101126.63
2023-12-14T16:34:37.318Z,101130.60
2023-12-14T16:36:48.896Z,101135.52
2023-12-14T16:38:57.192Z,101141.80
2023-12-14T16:41:07.071Z,101143.38
2023-12-14T16:43:20.157Z,101148.64
2023-12-14T16:45:28.304Z,101148.92
2023-12-14T16:47:36.549Z,101150.40
2023-12-14T16:49:44.793Z,101156.54
2023-12-14T16:51:52.994Z,101164.88
2023-12-14T16:54:03.512Z,101163.41
2023-12-14T16:56:13.880Z,101172.33
2023-12-14T16:58:22.053Z,101178.80
2023-12-14T17:00:30.177Z,101188.15
2023-12-14T17:02:38.451Z,101188.52
2023-12-14T17:04:49.064Z,101190.32
2023-12-14T17:06:57.503Z,101193.98
2023-12-14T17:09:05.976Z,101193.98
2023-12-14T17:11:14.540Z,101197.66
2023-12-14T17:13:22.683Z,101201.07
2023-12-14T17:15:30.910Z,101198.84
2023-12-14T17:17:39.239Z,101204.39
2023-12-14T17:19:47.395Z,101207.52
2023-12-14T17:21:56.090Z,101209.70
2023-12-14T17:24:06.197Z,101205.92
2023-12-14T17:26:15.173Z,101215.58
2023-12-14T17:28:24.176Z,101220.86
2023-12-14T17:30:32.502Z,101226.42
2023-12-14T17:32:41.282Z,101225.34
2023-12-14T17:34:49.815Z,101230.27
2023-12-14T17:36:58.059Z,101235.47
2023-12-14T17:39:06.187Z,101244.39
2023-12-14T17:41:16.539Z,101247.85
2023-12-14T17:43:24.883Z,101254.23
2023-12-14T17:45:33.264Z,101262.66
2023-12-14T17:47:41.513Z,101263.43
2023-12-14T17:49:49.686Z,101270.70
2023-12-14T17:51:57.877Z,101272.77
2023-12-14T17:54:06.006Z,101277.84
2023-12-14T17:56:14.657Z,101275.70
2023-12-14T17:58:22.862Z,101278.17
2023-12-14T18:00:30.982Z,101278.02
2023-12-14T18:02:39.205Z,101284.06
2023-12-14T18:04:47.447Z,101280.29
2023-12-14T18:06:55.549Z,101284.23
2023-12-14T18:09:05.408Z,101288.46
2023-12-14T18:11:14.297Z,101289.27
2023-12-14T18:13:22.407Z,101292.31
2023-12-14T18:15:30.910Z,101296.93
2023-12-14T18:17:39.277Z,101298.13
2023-12-14T18:19:47.659Z,101302.23
2023-12-14T18:21:55.775Z,101305.68
2023-12-14T18:24:05.110Z,101307.67
2023-12-14T18:26:13.278Z,101310.88
2023-12-14T18:28:21.675Z,101315.02
2023-12-14T18:30:29.967Z,101315.98
2023-12-14T18:32:38.258Z,101316.52
2023-12-14T18:34:46.338Z,101323.73
2023-12-14T18:36:54.515Z,101325.00
2023-12-14T18:39:02.823Z,101328.40
2023-12-14T18:41:11.145Z,101330.14
2023-12-14T18:43:19.346Z,101330.20
2023-12-14T18:45:27.483Z,101333.59
2023-12-14T18:47:35.695Z,101341.11
2023-12-14T18:49:44.272Z,101341.14
2023-12-14T18:51:52.330Z,101339.67
2023-12-14T18:54:00.315Z,101343.70
2023-12-14T18:56:09.982Z,101354.41
2023-12-14T18:58:18.014Z,101361.63
2023-12-14T19:00:26.424Z,101362.86
2023-12-14T19:02:36.751Z,101367.85
2023-12-14T19:04:46.730Z,101371.02
2023-12-14T19:06:54.842Z,101375.27
2023-12-14T19:09:03.000Z,101376.59
2023-12-14T19:11:18.208Z,101378.44
2023-12-14T19:13:26.247Z,101383.83
2023-12-14T19:15:34.354Z,101392.14
2023-12-14T19:17:42.739Z,101396.41
2023-12-14T19:19:51.762Z,101399.16
2023-12-14T19:21:59.953Z,101404.15
2023-12-14T19:24:09.848Z,101412.92
2023-12-14T19:26:21.195Z,101418.23
2023-12-14T19:28:29.236Z,101424.71
2023-12-14T19:30:37.368Z,101429.59
2023-12-14T19:32:47.621Z,101434.42
2023-12-14T19:34:55.803Z,101440.02
2023-12-14T19:37:03.788Z,101438.44
2023-12-14T19:39:11.757Z,101437.25
2023-12-14T19:41:19.943Z,101436.48
2023-12-14T19:43:27.963Z,101440.13
2023-12-14T19:45:35.975Z,101441.25
2023-12-14T19:47:44.201Z,101444.21
2023-12-14T19:49:53.222Z,101450.90
2023-12-14T19:52:01.475Z,101460.14
2023-12-14T19:54:09.944Z,101462.52
2023-12-14T19:56:19.434Z,101464.32
2023-12-14T19:58:27.463Z,101459.59
2023-12-14T20:00:35.607Z,101468.29
2023-12-14T20:02:43.683Z,101474.38
2023-12-14T20:04:51.726Z,101487.45
2023-12-14T20:07:00.038Z,101493.16
2023-12-14T20:09:08.222Z,101499.96
2023-12-14T20:11:20.354Z,101504.60
2023-12-14T20:13:28.822Z,101503.77
2023-12-14T20:15:36.855Z,101504.58
2023-12-14T20:17:44.993Z,101504.56
2023-12-14T20:19:53.234Z,101504.41
2023-12-14T20:22:02.396Z,101513.68
2023-12-14T20:24:11.256Z,101520.43
2023-12-14T20:26:31.763Z,101525.13
2023-12-14T20:28:40.381Z,101531.56
2023-12-14T20:30:50.625Z,101538.34
2023-12-14T20:33:00.009Z,101545.27
2023-12-14T20:35:10.165Z,101545.00
2023-12-14T20:37:18.252Z,101547.70
2023-12-14T20:39:26.257Z,101547.06
2023-12-14T20:41:34.345Z,101545.04
2023-12-14T20:43:42.374Z,101550.70
2023-12-14T20:45:50.402Z,101547.92
2023-12-14T20:47:58.560Z,101551.69
2023-12-14T20:50:07.888Z,101551.69
2023-12-14T20:52:16.095Z,101553.67
2023-12-14T20:54:24.602Z,101564.02
2023-12-14T20:56:32.799Z,101566.79
2023-12-14T20:58:41.205Z,101575.00
2023-12-14T21:00:49.230Z,101575.21
2023-12-14T21:02:57.206Z,101576.38
2023-12-14T21:05:05.613Z,101574.85
2023-12-14T21:07:13.976Z,101575.92
2023-12-14T21:09:22.043Z,101579.75
2023-12-14T21:11:30.128Z,101587.55
2023-12-14T21:13:38.221Z,101590.56
2023-12-14T21:15:46.231Z,101594.09
2023-12-14T21:17:54.324Z,101603.31
2023-12-14T21:20:02.539Z,101602.58
2023-12-14T21:22:10.705Z,101602.20
2023-12-14T21:24:21.436Z,101603.14
2023-12-14T21:26:31.503Z,101603.33
2023-12-14T21:28:40.131Z,101604.53
2023-12-14T21:30:49.682Z,101610.00
2023-12-14T21:32:57.833Z,101613.52
2023-12-14T21:35:06.842Z,101614.74
2023-12-14T21:37:15.185Z,101614.91
2023-12-14T21:39:23.270Z,101614.90
2023-12-14T21:41:31.328Z,101616.92
2023-12-14T21:43:39.482Z,101620.27
2023-12-14T21:45:47.571Z,101620.67
2023-12-14T21:47:55.582Z,101619.56
2023-12-14T21:50:03.781Z,101621.84
2023-12-14T21:52:11.812Z,101616.34
2023-12-14T21:54:19.885Z,101617.63
2023-12-14T21:56:27.915Z,101620.17
2023-12-14T21:58:35.918Z,101622.16
2023-12-14T22:00:43.921Z,101624.33
2023-12-14T22:02:52.359Z,101619.98
2023-12-14T22:05:01.130Z,101626.67
2023-12-14T22:07:09.631Z,101629.35
2023-12-14T22:09:18.807Z,101631.99
2023-12-14T22:11:26.892Z,101632.67
2023-12-14T22:13:34.885Z,101638.48
2023-12-14T22:15:43.289Z,101641.36
2023-12-14T22:17:51.528Z,101641.39
2023-12-14T22:20:00.618Z,101642.41
2023-12-14T22:22:09.073Z,101646.94
2023-12-14T22:24:17.086Z,101651.21
2023-12-14T22:26:25.237Z,101654.10
2023-12-14T22:28:33.289Z,101660.98
2023-12-14T22:30:41.777Z,101663.29
2023-12-14T22:32:49.815Z,101668.44
2023-12-14T22:34:57.855Z,101670.60
2023-12-14T22:37:06.035Z,101675.42
2023-12-14T22:39:15.935Z,101682.11
2023-12-14T22:41:24.054Z,101681.13
2023-12-14T22:43:33.454Z,101680.08
2023-12-14T22:45:41.577Z,101683.73
2023-12-14T22:47:50.950Z,101682.15
2023-12-14T22:49:59.076Z,101684.73
2023-12-14T22:52:07.580Z,101685.09
2023-12-14T22:54:15.569Z,101684.88
2023-12-14T22:56:27.226Z,101690.59
2023-12-14T22:58:35.792Z,101696.88
2023-12-14T23:00:44.456Z,101698.33
2023-12-14T23:02:52.522Z,101697.83
2023-12-14T23:05:03.020Z,101697.49
2023-12-14T23:07:11.802Z,101700.16
2023-12-14T23:09:20.049Z,101704.80
2023-12-14T23:11:28.856Z,101706.90
2023-12-14T23:13:36.910Z,101700.42
2023-12-14T23:15:44.908Z,101700.12
2023-12-14T23:17:55.169Z,101701.40
2023-12-14T23:20:04.403Z,101700.58
2023-12-14T23:22:12.465Z,101700.18
2023-12-14T23:24:21.017Z,101699.96
2023-12-14T23:26:29.065Z,101706.98
2023-12-14T23:28:37.113Z,101710.80
2023-12-14T23:30:45.407Z,101712.41
2023-12-14T23:32:53.477Z,101711.27
2023-12-14T23:35:01.506Z,101713.56
2023-12-14T23:37:09.523Z,101718.29
2023-12-14T23:39:17.786Z,101719.67
2023-12-14T23:41:25.985Z,101719.24
2023-12-14T23:43:34.425Z,101728.85
2023-12-14T23:45:42.434Z,101730.81
2023-12-14T23:47:50.488Z,101730.75
2023-12-14T23:49:58.748Z,101733.63
2023-12-14T23:52:07.251Z,101734.77
2023-12-14T23:54:15.292Z,101731.98
2023-12-14T23:56:23.251Z,101720.63
2023-12-14T23:58:31.312Z,101724.57
